createdAt,value
2023-05-02T00:01:43.362Z,5.90
2023-05-02T00:04:14.025Z,5.40
2023-05-02T00:06:46.543Z,5.40
2023-05-02T00:09:17.444Z,4.90
2023-05-02T00:11:47.986Z,5.30
2023-05-02T00:14:18.447Z,5.20
2023-05-02T00:16:49.072Z,6.30
2023-05-02T00:19:19.689Z,4.90
2023-05-02T00:21:51.320Z,5.00
2023-05-02T00:24:22.094Z,5.20
2023-05-02T00:26:52.586Z,5.70
2023-05-02T00:29:23.203Z,5.20
2023-05-02T00:31:53.947Z,5.00
2023-05-02T00:34:24.520Z,5.00
2023-05-02T00:36:54.995Z,5.30
2023-05-02T00:39:25.600Z,5.00
2023-05-02T00:42:00.683Z,4.80
2023-05-02T00:44:31.779Z,5.50
2023-05-02T00:47:03.979Z,4.80
2023-05-02T00:49:34.492Z,5.00
2023-05-02T00:52:04.975Z,5.10
2023-05-02T00:54:35.656Z,4.90
2023-05-02T00:57:06.146Z,5.20
2023-05-02T00:59:37.855Z,5.10
2023-05-02T01:02:19.410Z,5.20
2023-05-02T01:05:01.326Z,5.70
2023-05-02T01:07:53.006Z,4.80
2023-05-02T01:10:31.612Z,5.30
2023-05-02T01:13:09.250Z,5.30
2023-05-02T01:15:42.905Z,5.00
2023-05-02T01:18:16.576Z,5.00
2023-05-02T01:20:53.204Z,5.30
2023-05-02T01:23:32.297Z,4.70
2023-05-02T01:26:11.893Z,5.30
2023-05-02T01:28:56.558Z,5.60
2023-05-02T01:31:29.079Z,5.30
2023-05-02T01:34:02.124Z,5.10
2023-05-02T01:36:36.245Z,5.30
2023-05-02T01:39:11.059Z,4.80
2023-05-02T01:41:42.829Z,5.50
2023-05-02T01:46:48.701Z,5.10
2023-05-02T01:49:22.099Z,5.80
2023-05-02T01:51:53.993Z,5.40
2023-05-02T01:56:55.886Z,5.20
2023-05-02T01:59:29.949Z,5.30
2023-05-02T02:02:02.939Z,5.30
2023-05-02T02:04:36.237Z,5.30
2023-05-02T02:07:10.962Z,5.30
2023-05-02T02:09:42.010Z,5.20
2023-05-02T02:12:17.147Z,5.30
2023-05-02T02:14:52.124Z,5.20
2023-05-02T02:17:28.137Z,5.00
2023-05-02T02:20:02.407Z,4.60
2023-05-02T02:22:36.951Z,5.10
2023-05-02T02:25:10.215Z,5.30
2023-05-02T02:27:41.754Z,4.70
2023-05-02T02:30:13.476Z,5.60
2023-05-02T02:32:43.971Z,5.40
2023-05-02T02:35:14.561Z,5.20
2023-05-02T02:37:53.069Z,5.50
2023-05-02T02:40:32.337Z,5.50
2023-05-02T02:43:11.524Z,5.10
2023-05-02T02:46:04.358Z,5.30
2023-05-02T02:48:38.181Z,5.30
2023-05-02T02:51:16.211Z,5.30
2023-05-02T02:56:28.497Z,5.50
2023-05-02T02:59:04.293Z,5.00
2023-05-02T03:01:38.589Z,5.40
2023-05-02T03:04:12.333Z,5.40
2023-05-02T03:06:43.410Z,4.80
2023-05-02T03:11:50.155Z,4.30
2023-05-02T03:14:21.591Z,4.10
2023-05-02T03:16:52.697Z,3.70
2023-05-02T03:19:23.245Z,3.70
2023-05-02T03:21:53.733Z,3.40
2023-05-02T03:24:24.462Z,3.40
2023-05-02T03:26:59.121Z,3.80
2023-05-02T03:29:31.918Z,3.60
2023-05-02T03:32:02.442Z,3.90
2023-05-02T03:34:33.132Z,3.70
2023-05-02T03:37:04.631Z,3.50
2023-05-02T03:39:35.640Z,3.90
2023-05-02T03:42:06.637Z,3.50
2023-05-02T03:44:37.105Z,3.90
2023-05-02T03:47:07.761Z,4.30
2023-05-02T03:49:39.344Z,3.20
2023-05-02T03:52:10.652Z,3.80
2023-05-02T03:54:41.829Z,3.70
2023-05-02T03:57:12.922Z,3.50
2023-05-02T03:59:45.761Z,3.70
2023-05-02T04:02:18.904Z,3.50
2023-05-02T04:04:51.939Z,4.10
2023-05-02T04:07:25.946Z,3.40
2023-05-02T04:10:07.542Z,3.70
2023-05-02T04:12:42.938Z,3.60
2023-05-02T04:15:14.599Z,4.10
2023-05-02T04:17:46.957Z,4.30
2023-05-02T04:20:18.564Z,3.90
2023-05-02T04:22:52.577Z,6.60
2023-05-02T04:25:23.830Z,4.20
2023-05-02T04:27:56.292Z,4.10
2023-05-02T04:30:28.572Z,3.70
2023-05-02T04:33:04.840Z,3.90
2023-05-02T04:35:40.469Z,4.00
2023-05-02T04:38:11.329Z,4.50
2023-05-02T04:40:42.214Z,4.10
2023-05-02T04:43:12.853Z,4.20
2023-05-02T04:45:48.642Z,3.90
2023-05-02T04:48:27.141Z,3.70
2023-05-02T04:50:57.658Z,3.90
2023-05-02T04:53:28.151Z,3.80
2023-05-02T04:55:59.088Z,3.90
2023-05-02T04:58:29.689Z,4.60
2023-05-02T05:01:06.345Z,4.00
2023-05-02T05:03:37.103Z,4.20
2023-05-02T05:06:08.860Z,4.50
2023-05-02T05:08:40.012Z,6.60
2023-05-02T05:11:11.082Z,5.40
2023-05-02T05:13:42.024Z,4.40
2023-05-02T05:18:43.330Z,4.50
2023-05-02T05:21:16.370Z,4.70
2023-05-02T05:23:47.702Z,4.60
2023-05-02T05:26:23.870Z,4.20
2023-05-02T05:28:55.545Z,3.90
2023-05-02T05:31:28.412Z,4.70
2023-05-02T05:34:03.155Z,4.30
2023-05-02T05:36:34.194Z,3.70
2023-05-02T05:39:05.840Z,4.50
2023-05-02T05:44:09.676Z,4.20
2023-05-02T05:46:40.361Z,4.40
2023-05-02T05:49:13.157Z,4.70
2023-05-02T05:51:45.312Z,4.70
2023-05-02T05:54:18.174Z,4.50
2023-05-02T05:56:48.870Z,4.60
2023-05-02T05:59:22.081Z,4.50
2023-05-02T06:01:54.208Z,4.90
2023-05-02T06:04:26.089Z,4.30
2023-05-02T06:06:57.298Z,4.50
2023-05-02T06:09:27.822Z,4.40
2023-05-02T06:11:58.412Z,4.30
2023-05-02T06:14:28.987Z,4.30
2023-05-02T06:17:01.500Z,3.90
2023-05-02T06:19:31.976Z,4.30
2023-05-02T06:22:02.423Z,4.30
2023-05-02T06:24:32.910Z,4.40
2023-05-02T06:27:03.435Z,4.80
2023-05-02T06:29:33.877Z,4.30
2023-05-02T06:32:04.906Z,4.40
2023-05-02T06:34:36.365Z,4.10
2023-05-02T06:37:07.039Z,5.50
2023-05-02T06:39:37.576Z,4.90
2023-05-02T06:42:08.038Z,4.50
2023-05-02T06:44:39.214Z,4.80
2023-05-02T06:47:09.730Z,4.70
2023-05-02T06:49:40.287Z,4.50
2023-05-02T06:52:10.787Z,4.90
2023-05-02T06:54:42.439Z,4.70
2023-05-02T06:57:12.969Z,4.70
2023-05-02T06:59:43.506Z,5.10
2023-05-02T07:02:13.994Z,5.40
2023-05-02T07:04:44.670Z,6.40
2023-05-02T07:07:18.825Z,7.00
2023-05-02T07:09:49.825Z,5.10
2023-05-02T07:12:20.922Z,5.50
2023-05-02T07:14:51.348Z,5.10
2023-05-02T07:17:22.491Z,5.50
2023-05-02T07:19:53.023Z,5.30
2023-05-02T07:22:23.752Z,5.60
2023-05-02T07:25:02.104Z,4.90
2023-05-02T07:27:32.674Z,5.50
2023-05-02T07:30:03.549Z,4.90
2023-05-02T07:32:34.462Z,5.30
2023-05-02T07:35:05.214Z,5.30
2023-05-02T07:37:36.937Z,5.40
2023-05-02T07:40:09.670Z,5.20
2023-05-02T07:42:41.846Z,5.50
2023-05-02T07:45:12.883Z,5.50
2023-05-02T07:47:43.431Z,5.40
2023-05-02T07:50:14.650Z,5.10
2023-05-02T07:52:45.111Z,5.30
2023-05-02T07:55:15.578Z,5.80
2023-05-02T07:57:46.041Z,5.80
2023-05-02T08:00:18.390Z,5.70
2023-05-02T08:02:48.930Z,5.70
2023-05-02T08:05:19.523Z,7.20
2023-05-02T08:07:50.015Z,6.00
2023-05-02T08:10:21.027Z,5.60
2023-05-02T08:12:51.447Z,5.10
2023-05-02T08:15:22.000Z,5.50
2023-05-02T08:17:52.509Z,5.30
2023-05-02T08:20:23.661Z,5.30
2023-05-02T08:22:54.271Z,6.10
2023-05-02T08:25:24.763Z,6.10
2023-05-02T08:27:55.223Z,5.60
2023-05-02T08:30:25.683Z,5.80
2023-05-02T08:32:56.175Z,6.10
2023-05-02T08:35:26.802Z,5.50
2023-05-02T08:37:57.691Z,6.10
2023-05-02T08:40:40.762Z,5.60
2023-05-02T08:43:13.931Z,5.70
2023-05-02T08:45:45.693Z,5.50
2023-05-02T08:48:18.064Z,5.10
2023-05-02T08:50:49.658Z,5.60
2023-05-02T08:53:21.241Z,5.40
2023-05-02T08:55:52.488Z,5.50
2023-05-02T08:58:22.930Z,5.80
2023-05-02T09:00:55.270Z,6.00
2023-05-02T09:03:32.597Z,6.50
2023-05-02T09:06:08.541Z,5.10
2023-05-02T09:08:40.486Z,5.70
2023-05-02T09:11:12.336Z,6.10
2023-05-02T09:16:14.687Z,5.80
2023-05-02T09:18:47.066Z,6.10
2023-05-02T09:21:20.616Z,5.70
2023-05-02T09:23:52.908Z,5.60
2023-05-02T09:28:54.738Z,8.60
2023-05-02T09:31:49.761Z,6.60
2023-05-02T09:34:18.765Z,5.60
2023-05-02T09:36:52.113Z,5.70
2023-05-02T09:39:25.864Z,6.50
2023-05-02T09:41:57.312Z,6.30
2023-05-02T09:44:37.185Z,6.40
2023-05-02T09:47:08.999Z,6.20
2023-05-02T09:52:16.821Z,6.10
2023-05-02T09:54:47.593Z,6.70
2023-05-02T09:57:18.498Z,6.30
2023-05-02T09:59:59.078Z,6.40
2023-05-02T10:02:33.358Z,6.30
2023-05-02T10:05:07.340Z,5.90
2023-05-02T10:07:38.593Z,6.10
2023-05-02T10:10:13.431Z,5.50
2023-05-02T10:12:44.375Z,6.00
2023-05-02T10:15:17.762Z,5.70
2023-05-02T10:17:53.149Z,5.20
2023-05-02T10:20:28.694Z,5.10
2023-05-02T10:23:02.441Z,5.50
2023-05-02T10:25:33.773Z,5.10
2023-05-02T10:28:05.344Z,5.40
2023-05-02T10:30:36.418Z,5.40
2023-05-02T10:33:07.367Z,5.00
2023-05-02T10:35:40.180Z,4.90
2023-05-02T10:38:11.640Z,5.20
2023-05-02T10:40:44.113Z,5.20
2023-05-02T10:43:18.357Z,5.40
2023-05-02T10:45:49.113Z,5.00
2023-05-02T10:48:22.273Z,5.80
2023-05-02T10:50:54.536Z,5.20
2023-05-02T10:53:33.098Z,5.30
2023-05-02T10:56:23.060Z,5.40
2023-05-02T10:58:54.510Z,5.20
2023-05-02T11:01:42.166Z,5.40
2023-05-02T11:04:13.569Z,6.00
2023-05-02T11:07:20.231Z,5.30
2023-05-02T11:09:50.734Z,4.80
2023-05-02T11:12:48.637Z,5.00
2023-05-02T11:16:00.867Z,5.10
2023-05-02T11:19:01.461Z,4.70
2023-05-02T11:21:33.019Z,4.90
2023-05-02T11:24:38.361Z,5.00
2023-05-02T11:27:43.988Z,4.80
2023-05-02T11:30:15.411Z,5.30
2023-05-02T11:33:17.507Z,4.60
2023-05-02T11:35:50.054Z,5.20
2023-05-02T11:38:22.575Z,4.80
2023-05-02T11:40:58.556Z,4.70
2023-05-02T11:43:31.873Z,5.20
2023-05-02T11:46:06.016Z,5.30
2023-05-02T11:48:36.922Z,5.70
2023-05-02T11:51:07.740Z,4.80
2023-05-02T11:53:43.376Z,5.30
2023-05-02T11:56:13.915Z,4.90
2023-05-02T11:58:44.662Z,4.50
2023-05-02T12:01:17.518Z,4.80
2023-05-02T12:03:49.560Z,4.70
2023-05-02T12:06:21.097Z,4.90
2023-05-02T12:08:55.670Z,6.70
2023-05-02T12:11:26.184Z,5.40
2023-05-02T12:13:57.397Z,5.30
2023-05-02T12:16:28.020Z,5.20
2023-05-02T12:19:01.040Z,5.40
2023-05-02T12:21:33.634Z,6.20
2023-05-02T12:24:04.797Z,6.40
2023-05-02T12:26:35.331Z,5.40
2023-05-02T12:29:08.164Z,5.90
2023-05-02T12:31:39.237Z,5.40
2023-05-02T12:34:10.126Z,4.90
2023-05-02T12:36:46.363Z,4.50
2023-05-02T12:39:16.845Z,4.60
2023-05-02T12:41:47.322Z,4.90
2023-05-02T12:44:18.777Z,4.70
2023-05-02T12:47:01.720Z,4.60
2023-05-02T12:49:33.004Z,4.10
2023-05-02T12:52:03.487Z,4.00
2023-05-02T12:54:34.066Z,4.60
2023-05-02T12:57:04.598Z,4.30
2023-05-02T12:59:35.283Z,3.60
2023-05-02T13:02:06.330Z,3.90
2023-05-02T13:04:42.193Z,3.80
2023-05-02T13:07:12.726Z,3.20
2023-05-02T13:09:43.233Z,3.20
2023-05-02T13:12:14.390Z,3.00
2023-05-02T13:14:45.243Z,3.20
2023-05-02T13:17:16.285Z,19.00
2023-05-02T13:20:01.057Z,7.30
2023-05-02T13:22:32.729Z,3.80
2023-05-02T13:25:03.428Z,3.10
2023-05-02T13:27:34.549Z,3.80
2023-05-02T13:30:08.878Z,3.70
2023-05-02T13:32:40.308Z,3.50
2023-05-02T13:35:14.465Z,3.80
2023-05-02T13:37:44.921Z,4.00
2023-05-02T13:40:15.831Z,4.20
2023-05-02T13:42:46.414Z,3.70
2023-05-02T13:45:17.919Z,3.50
2023-05-02T13:47:48.523Z,3.50
2023-05-02T13:50:19.176Z,3.60
2023-05-02T13:52:49.683Z,3.40
2023-05-02T13:55:20.145Z,3.50
2023-05-02T13:57:50.603Z,3.90
2023-05-02T14:00:22.154Z,3.70
2023-05-02T14:02:52.815Z,3.40
2023-05-02T14:05:23.713Z,3.30
2023-05-02T14:07:54.178Z,3.30
2023-05-02T14:10:24.635Z,3.10
2023-05-02T14:12:55.101Z,4.40
2023-05-02T14:15:27.000Z,5.80
2023-05-02T14:17:57.520Z,4.50
2023-05-02T14:20:28.143Z,3.70
2023-05-02T14:22:58.898Z,3.50
2023-05-02T14:25:29.365Z,3.60
2023-05-02T14:28:00.585Z,3.70
2023-05-02T14:30:31.472Z,4.20
2023-05-02T14:33:02.231Z,3.60
2023-05-02T14:35:32.732Z,3.50
2023-05-02T14:38:04.353Z,4.00
2023-05-02T14:43:03.902Z,3.50
2023-05-02T14:45:34.397Z,3.80
2023-05-02T14:48:05.140Z,3.40
2023-05-02T14:50:37.748Z,3.70
2023-05-02T14:53:08.436Z,3.70
2023-05-02T14:55:40.656Z,3.80
2023-05-02T14:58:11.939Z,7.50
2023-05-02T15:00:43.342Z,5.40
2023-05-02T15:03:14.210Z,5.60
2023-05-02T15:05:44.979Z,4.50
2023-05-02T15:08:15.496Z,4.10
2023-05-02T15:10:46.619Z,4.00
2023-05-02T15:13:17.040Z,4.00
2023-05-02T15:15:49.099Z,3.40
2023-05-02T15:18:19.603Z,3.40
2023-05-02T15:20:50.179Z,3.70
2023-05-02T15:23:20.736Z,3.70
2023-05-02T15:25:51.284Z,4.00
2023-05-02T15:28:21.742Z,3.50
2023-05-02T15:30:52.196Z,5.10
2023-05-02T15:33:22.670Z,4.70
2023-05-02T15:35:58.862Z,3.40
2023-05-02T15:38:29.426Z,3.60
2023-05-02T15:41:01.434Z,3.60
2023-05-02T15:43:31.926Z,3.40
2023-05-02T15:46:03.353Z,3.60
2023-05-02T15:51:05.570Z,4.80
2023-05-02T15:53:39.642Z,4.90
2023-05-02T15:56:11.958Z,4.80
2023-05-02T15:58:42.807Z,5.40
2023-05-02T16:01:13.354Z,4.80
2023-05-02T16:03:44.001Z,6.00
2023-05-02T16:06:16.086Z,5.80
2023-05-02T16:08:46.604Z,6.40
2023-05-02T16:11:17.078Z,6.40
2023-05-02T16:13:47.593Z,7.00
2023-05-02T16:16:18.148Z,7.00
2023-05-02T16:18:48.682Z,7.60
2023-05-02T16:21:19.171Z,6.90
2023-05-02T16:23:49.637Z,6.60
2023-05-02T16:26:20.811Z,6.50
2023-05-02T16:28:51.458Z,7.00
2023-05-02T16:31:22.103Z,6.70
2023-05-02T16:33:53.590Z,6.70
2023-05-02T16:36:24.633Z,6.70
2023-05-02T16:38:55.091Z,6.00
2023-05-02T16:41:25.532Z,6.90
2023-05-02T16:43:55.986Z,7.00
2023-05-02T16:46:26.859Z,7.40
2023-05-02T16:48:57.519Z,7.20
2023-05-02T16:51:28.172Z,6.50
2023-05-02T16:53:58.742Z,7.70
2023-05-02T16:56:29.383Z,6.90
2023-05-02T16:58:59.868Z,7.70
2023-05-02T17:01:30.425Z,7.60
2023-05-02T17:04:00.917Z,7.00
2023-05-02T17:06:31.810Z,7.10
2023-05-02T17:09:03.049Z,6.70
2023-05-02T17:11:33.554Z,7.30
2023-05-02T17:14:04.118Z,5.80
2023-05-02T17:16:34.625Z,6.30
2023-05-02T17:19:05.191Z,5.30
2023-05-02T17:21:35.907Z,4.50
2023-05-02T17:24:07.124Z,4.50
2023-05-02T17:26:37.592Z,4.50
2023-05-02T17:29:08.132Z,4.60
2023-05-02T17:31:38.889Z,4.50
2023-05-02T17:34:09.512Z,4.70
2023-05-02T17:36:41.999Z,4.30
2023-05-02T17:39:13.557Z,5.00
2023-05-02T17:41:46.350Z,4.30
2023-05-02T17:44:17.236Z,4.40
2023-05-02T17:46:47.955Z,4.40
2023-05-02T17:49:18.494Z,4.60
2023-05-02T17:51:48.915Z,8.10
2023-05-02T17:54:19.900Z,5.90
2023-05-02T17:56:51.274Z,4.20
2023-05-02T17:59:22.097Z,4.30
2023-05-02T18:01:52.583Z,4.20
2023-05-02T18:04:24.486Z,4.40
2023-05-02T18:06:55.585Z,4.40
2023-05-02T18:09:26.438Z,4.60
2023-05-02T18:11:58.491Z,4.30
2023-05-02T18:14:28.938Z,4.80
2023-05-02T18:16:59.489Z,4.50
2023-05-02T18:19:30.374Z,4.40
2023-05-02T18:22:01.155Z,4.30
2023-05-02T18:24:33.370Z,4.80
2023-05-02T18:27:04.481Z,4.60
2023-05-02T18:29:37.606Z,4.90
2023-05-02T18:32:08.279Z,5.10
2023-05-02T18:34:39.257Z,4.70
2023-05-02T18:37:09.914Z,5.00
2023-05-02T18:39:40.347Z,4.90
2023-05-02T18:42:13.087Z,4.60
2023-05-02T18:44:43.558Z,4.40
2023-05-02T18:47:14.165Z,4.80
2023-05-02T18:49:44.942Z,4.40
2023-05-02T18:52:15.491Z,4.50
2023-05-02T18:54:45.961Z,4.60
2023-05-02T18:57:16.791Z,5.00
2023-05-02T18:59:47.249Z,4.00
2023-05-02T19:02:18.303Z,4.20
2023-05-02T19:04:48.853Z,4.30
2023-05-02T19:07:19.531Z,4.00
2023-05-02T19:09:50.105Z,4.40
2023-05-02T19:12:20.599Z,4.70
2023-05-02T19:14:51.288Z,4.30
2023-05-02T19:17:22.498Z,3.90
2023-05-02T19:19:55.595Z,4.40
2023-05-02T19:22:27.770Z,4.10
2023-05-02T19:24:58.488Z,4.50
2023-05-02T19:27:28.960Z,4.50
2023-05-02T19:29:59.544Z,4.60
2023-05-02T19:32:30.004Z,6.30
2023-05-02T19:35:02.032Z,4.20
2023-05-02T19:37:32.795Z,4.10
2023-05-02T19:40:03.683Z,4.10
2023-05-02T19:42:34.721Z,4.00
2023-05-02T19:45:05.518Z,3.80
2023-05-02T19:47:36.454Z,4.40
2023-05-02T19:50:10.090Z,4.30
2023-05-02T19:52:44.526Z,4.20
2023-05-02T19:55:16.303Z,4.30
2023-05-02T20:00:18.541Z,3.80
2023-05-02T20:02:51.163Z,3.80
2023-05-02T20:05:22.166Z,3.70
2023-05-02T20:07:52.650Z,4.10
2023-05-02T20:10:24.215Z,4.00
2023-05-02T20:12:54.685Z,4.10
2023-05-02T20:15:25.937Z,3.90
2023-05-02T20:17:58.155Z,3.90
2023-05-02T20:20:28.946Z,3.30
2023-05-02T20:22:59.470Z,3.30
2023-05-02T20:25:30.220Z,3.40
2023-05-02T20:28:01.223Z,3.50
2023-05-02T20:30:31.885Z,3.50
2023-05-02T20:33:14.154Z,3.30
2023-05-02T20:35:46.259Z,3.40
2023-05-02T20:38:17.804Z,3.30
2023-05-02T20:40:48.255Z,3.40
2023-05-02T20:43:19.969Z,3.40
2023-05-02T20:45:50.543Z,3.30
2023-05-02T20:48:21.289Z,3.40
2023-05-02T20:50:55.850Z,3.50
2023-05-02T20:53:26.458Z,3.40
2023-05-02T20:55:56.923Z,3.40
2023-05-02T20:58:27.430Z,3.20
2023-05-02T21:00:58.019Z,3.90
2023-05-02T21:03:29.912Z,3.30
2023-05-02T21:06:00.632Z,3.30
2023-05-02T21:08:31.123Z,3.30
2023-05-02T21:11:01.620Z,3.20
2023-05-02T21:13:32.089Z,3.60
2023-05-02T21:16:02.527Z,3.20
2023-05-02T21:18:33.175Z,3.40
2023-05-02T21:21:03.628Z,3.50
2023-05-02T21:23:34.115Z,3.80
2023-05-02T21:26:05.130Z,3.80
2023-05-02T21:28:35.578Z,3.50
2023-05-02T21:31:06.114Z,3.50
2023-05-02T21:33:36.745Z,3.90
2023-05-02T21:36:07.692Z,3.90
2023-05-02T21:38:38.378Z,3.80
2023-05-02T21:41:10.093Z,3.40
2023-05-02T21:43:46.230Z,3.20
2023-05-02T21:46:16.727Z,3.60
2023-05-02T21:48:50.397Z,3.60
2023-05-02T21:51:25.914Z,4.90
2023-05-02T21:53:56.948Z,3.60
2023-05-02T21:56:27.403Z,4.40
2023-05-02T21:59:00.554Z,3.90
2023-05-02T22:01:31.082Z,4.20
2023-05-02T22:04:01.847Z,3.90
2023-05-02T22:06:32.727Z,4.20
2023-05-02T22:09:05.064Z,3.60
2023-05-02T22:11:36.003Z,3.80
2023-05-02T22:14:06.553Z,4.30
2023-05-02T22:16:40.554Z,4.10
2023-05-02T22:19:15.240Z,4.90
2023-05-02T22:21:46.271Z,4.10
2023-05-02T22:24:17.252Z,4.00
2023-05-02T22:26:49.685Z,4.20
2023-05-02T22:29:20.177Z,4.00
2023-05-02T22:31:52.255Z,5.30
2023-05-02T22:34:23.260Z,5.50
2023-05-02T22:36:58.239Z,4.80
2023-05-02T22:39:28.690Z,4.20
2023-05-02T22:42:01.663Z,3.80
2023-05-02T22:44:46.791Z,4.10
2023-05-02T22:47:25.226Z,4.50
2023-05-02T22:49:56.935Z,3.90
2023-05-02T22:52:29.566Z,4.20
2023-05-02T22:55:00.968Z,4.40
2023-05-02T22:57:31.880Z,4.40
2023-05-02T23:00:02.720Z,3.70
2023-05-02T23:02:33.547Z,4.60
2023-05-02T23:05:04.394Z,4.50
2023-05-02T23:07:34.951Z,4.30
2023-05-02T23:10:06.064Z,4.40
2023-05-02T23:12:36.783Z,4.10
2023-05-02T23:15:08.798Z,4.30
2023-05-02T23:17:41.212Z,4.60
2023-05-02T23:20:12.943Z,4.50
2023-05-02T23:22:47.659Z,4.00
2023-05-02T23:25:18.604Z,4.10
2023-05-02T23:27:49.073Z,3.90
2023-05-02T23:30:19.523Z,4.10
2023-05-02T23:32:50.107Z,4.10
2023-05-02T23:35:21.611Z,4.20
2023-05-02T23:37:53.160Z,3.90
2023-05-02T23:40:23.685Z,4.10
2023-05-02T23:42:54.498Z,3.80
2023-05-02T23:45:25.023Z,3.70
2023-05-02T23:47:55.896Z,3.70
2023-05-02T23:50:26.753Z,3.30
2023-05-02T23:52:57.170Z,3.50
2023-05-02T23:55:28.310Z,3.80
2023-05-02T23:57:58.758Z,3.70
